Time,TemperatureF,DewpointF,PressureIn,WindDirection,WindDirectionDegrees,WindSpeedMPH,WindSpeedGustMPH,Humidity,HourlyPrecipIn,Conditions,Clouds,dailyrainin,SoftwareType,DateUTC
2013-01-17 00:05:00,67.0,-99.9,30.06,North,-999,-999.0,-999.0,-999,-99.99,,,-99.99,,2013-01-17 05:05:00,
2013-01-17 00:12:00,67.0,-99.9,30.06,North,-999,-999.0,-999.0,-999,-99.99,,,-99.99,,2013-01-17 05:12:00,
2013-01-17 00:22:00,67.0,-99.9,30.06,SSW,210,1.0,2.0,-999,-99.99,,,-99.99,,2013-01-17 05:22:00,
2013-01-17 00:33:00,67.0,-99.9,30.06,SW,229,1.0,2.0,-999,-99.99,,,-99.99,,2013-01-17 05:33:00,
2013-01-17 00:43:00,67.0,-99.9,30.06,SW,221,0.0,1.0,-999,-99.99,,,-99.99,,2013-01-17 05:43:00,
2013-01-17 00:53:00,66.0,-99.9,30.06,West,260,1.0,2.0,-999,-99.99,,,-99.99,,2013-01-17 05:53:00,
2013-01-17 01:03:00,67.0,-99.9,30.06,SW,221,1.0,1.0,-999,-99.99,,,-99.99,,2013-01-17 06:03:00,
2013-01-17 01:12:00,66.0,-99.9,30.06,SW,219,1.0,2.0,-999,-99.99,,,-99.99,,2013-01-17 06:12:00,
2013-01-17 01:22:00,67.0,-99.9,30.06,West,274,1.0,2.0,-999,-99.99,,,-99.99,,2013-01-17 06:22:00,
2013-01-17 01:33:00,67.0,-99.9,30.06,West,278,2.0,2.0,-999,-99.99,,,-99.99,,2013-01-17 06:33:00,
2013-01-17 01:42:00,67.0,-99.9,30.06,West,266,2.0,2.0,-999,-99.99,,,-99.99,,2013-01-17 06:42:00,
2013-01-17 01:53:00,67.0,-99.9,30.06,West,261,3.0,3.0,-999,-99.99,,,-99.99,,2013-01-17 06:53:00,
2013-01-17 02:02:00,67.0,-99.9,30.06,West,260,4.0,4.0,-999,-99.99,,,-99.99,,2013-01-17 07:02:00,
2013-01-17 02:12:00,67.0,-99.9,30.06,WSW,252,4.0,4.0,-999,-99.99,,,-99.99,,2013-01-17 07:12:00,
2013-01-17 02:22:00,67.0,-99.9,30.06,SSW,201,2.0,3.0,-999,-99.99,,,-99.99,,2013-01-17 07:22:00,
2013-01-17 02:33:00,67.0,-99.9,30.06,South,182,2.0,3.0,-999,-99.99,,,-99.99,,2013-01-17 07:33:00,
2013-01-17 02:43:00,68.0,-99.9,30.06,SSW,192,2.0,3.0,-999,-99.99,,,-99.99,,2013-01-17 07:43:00,
2013-01-17 02:53:00,67.0,-99.9,30.05,SSW,205,2.0,2.0,-999,-99.99,,,-99.99,,2013-01-17 07:53:00,
2013-01-17 03:02:00,67.0,-99.9,30.05,SW,214,1.0,2.0,-999,-99.99,,,-99.99,,2013-01-17 08:02:00,
2013-01-17 03:12:00,67.0,-99.9,30.05,WSW,255,1.0,1.0,-999,-99.99,,,-99.99,,2013-01-17 08:12:00,
2013-01-17 03:22:00,67.0,-99.9,30.05,SSW,193,0.0,1.0,-999,-99.99,,,-99.99,,2013-01-17 08:22:00,
2013-01-17 03:33:00,67.0,-99.9,30.05,West,259,1.0,2.0,-999,-99.99,,,-99.99,,2013-01-17 08:33:00,
2013-01-17 03:44:00,67.0,-99.9,30.05,WSW,244,1.0,2.0,-999,-99.99,,,-99.99,,2013-01-17 08:44:00,
2013-01-17 03:53:00,67.0,-99.9,30.05,WSW,242,2.0,2.0,-999,-99.99,,,-99.99,,2013-01-17 08:53:00,
2013-01-17 04:03:00,67.0,-99.9,30.05,WSW,248,2.0,3.0,-999,-99.99,,,-99.99,,2013-01-17 09:03:00,
2013-01-17 04:12:00,67.0,-99.9,30.05,SW,236,3.0,4.0,-999,-99.99,,,-99.99,,2013-01-17 09:12:00,
2013-01-17 04:22:00,68.0,-99.9,30.05,SSW,209,3.0,3.0,-999,-99.99,,,-99.99,,2013-01-17 09:22:00,
2013-01-17 04:33:00,69.0,-99.9,30.04,SSW,209,4.0,6.0,-999,-99.99,,,-99.99,,2013-01-17 09:33:00,
2013-01-17 04:43:00,68.0,-99.9,30.05,WSW,241,3.0,6.0,-999,-99.99,,,-99.99,,2013-01-17 09:43:00,
2013-01-17 04:53:00,68.0,-99.9,30.05,WSW,241,3.0,4.0,-999,-99.99,,,-99.99,,2013-01-17 09:53:00,
2013-01-17 05:02:00,68.0,-99.9,30.04,SW,223,2.0,3.0,-999,-99.99,,,-99.99,,2013-01-17 10:02:00,
2013-01-17 05:12:00,68.0,-99.9,30.04,SW,214,2.0,3.0,-999,-99.99,,,-99.99,,2013-01-17 10:12:00,
2013-01-17 05:22:00,69.0,-99.9,30.03,South,181,4.0,4.0,-999,-99.99,,,-99.99,,2013-01-17 10:22:00,
2013-01-17 05:33:00,69.0,-99.9,30.03,SSE,165,7.0,8.0,-999,-99.99,,,-99.99,,2013-01-17 10:33:00,
2013-01-17 05:43:00,69.0,-99.9,30.03,SSE,166,7.0,9.0,-999,-99.99,,,-99.99,,2013-01-17 10:43:00,
2013-01-17 05:53:00,69.0,-99.9,30.03,SSE,161,7.0,8.0,-999,-99.99,,,-99.99,,2013-01-17 10:53:00,
2013-01-17 06:03:00,68.0,-99.9,30.03,SSE,162,8.0,9.0,-999,-99.99,,,-99.99,,2013-01-17 11:03:00,
2013-01-17 06:12:00,69.0,-99.9,30.03,SSE,161,10.0,11.0,-999,-99.99,,,-99.99,,2013-01-17 11:12:00,
2013-01-17 06:23:00,68.0,-99.9,30.03,SSE,159,9.0,10.0,-999,-99.99,,,-99.99,,2013-01-17 11:23:00,
2013-01-17 06:33:00,68.0,-99.9,30.03,SSE,162,11.0,12.0,-999,-99.99,,,-99.99,,2013-01-17 11:33:00,
2013-01-17 06:43:00,68.0,-99.9,30.03,SSE,164,9.0,11.0,-999,-99.99,,,-99.99,,2013-01-17 11:43:00,
2013-01-17 06:53:00,68.0,-99.9,30.04,South,183,8.0,10.0,-999,-99.99,,,-99.99,,2013-01-17 11:53:00,
2013-01-17 07:03:00,68.0,-99.9,30.04,South,188,7.0,8.0,-999,-99.99,,,-99.99,,2013-01-17 12:03:00,
2013-01-17 07:12:00,68.0,-99.9,30.04,South,187,6.0,8.0,-999,-99.99,,,-99.99,,2013-01-17 12:12:00,
2013-01-17 07:23:00,68.0,-99.9,30.04,South,182,8.0,9.0,-999,-99.99,,,-99.99,,2013-01-17 12:23:00,
2013-01-17 07:33:00,68.0,-99.9,30.04,South,181,8.0,10.0,-999,-99.99,,,-99.99,,2013-01-17 12:33:00,
2013-01-17 07:43:00,68.0,-99.9,30.04,South,180,8.0,10.0,-999,-99.99,,,-99.99,,2013-01-17 12:43:00,
2013-01-17 07:53:00,69.0,-99.9,30.05,South,181,9.0,11.0,-999,-99.99,,,-99.99,,2013-01-17 12:53:00,
2013-01-17 08:03:00,69.0,-99.9,30.05,South,181,10.0,13.0,-999,-99.99,,,-99.99,,2013-01-17 13:03:00,
2013-01-17 08:13:00,69.0,-99.9,30.05,South,181,10.0,12.0,-999,-99.99,,,-99.99,,2013-01-17 13:13:00,
2013-01-17 08:23:00,69.0,-99.9,30.05,South,182,9.0,11.0,-999,-99.99,,,-99.99,,2013-01-17 13:23:00,
2013-01-17 08:33:00,69.0,-99.9,30.06,South,187,9.0,11.0,-999,-99.99,,,-99.99,,2013-01-17 13:33:00,
2013-01-17 08:43:00,69.0,-99.9,30.06,South,187,10.0,12.0,-999,-99.99,,,-99.99,,2013-01-17 13:43:00,
2013-01-17 08:53:00,69.0,-99.9,30.06,South,188,8.0,11.0,-999,-99.99,,,-99.99,,2013-01-17 13:53:00,
2013-01-17 09:03:00,69.0,-99.9,30.06,SSW,196,7.0,9.0,-999,-99.99,,,-99.99,,2013-01-17 14:03:00,
2013-01-17 09:13:00,70.0,-99.9,30.07,SSW,199,9.0,12.0,-999,-99.99,,,-99.99,,2013-01-17 14:13:00,
2013-01-17 09:23:00,70.0,-99.9,30.07,SSW,196,9.0,12.0,-999,-99.99,,,-99.99,,2013-01-17 14:23:00,
2013-01-17 09:33:00,71.0,-99.9,30.07,SSW,202,8.0,10.0,-999,-99.99,,,-99.99,,2013-01-17 14:33:00,
2013-01-17 09:43:00,71.0,-99.9,30.08,SSW,200,8.0,10.0,-999,-99.99,,,-99.99,,2013-01-17 14:43:00,
2013-01-17 09:53:00,71.0,-99.9,30.08,SSW,211,9.0,12.0,-999,-99.99,,,-99.99,,2013-01-17 14:53:00,
2013-01-17 10:03:00,72.0,-99.9,30.09,SW,226,10.0,13.0,-999,-99.99,,,-99.99,,2013-01-17 15:03:00,
2013-01-17 10:13:00,72.0,-99.9,30.09,SW,220,10.0,15.0,-999,-99.99,,,-99.99,,2013-01-17 15:13:00,
2013-01-17 10:23:00,69.0,-99.9,30.10,WNW,291,15.0,19.0,-999,-99.99,,,-99.99,,2013-01-17 15:23:00,
2013-01-17 10:33:00,68.0,-99.9,30.10,WNW,300,15.0,21.0,-999,-99.99,,,-99.99,,2013-01-17 15:33:00,
2013-01-17 10:44:00,67.0,-99.9,30.11,WNW,296,15.0,18.0,-999,-99.99,,,-99.99,,2013-01-17 15:44:00,
2013-01-17 10:53:00,67.0,-99.9,30.12,WNW,294,12.0,19.0,-999,-99.99,,,-99.99,,2013-01-17 15:53:00,
2013-01-17 11:03:00,66.0,-99.9,30.11,NW,304,16.0,22.0,-999,-99.99,,,-99.99,,2013-01-17 16:03:00,
2013-01-17 11:13:00,66.0,-99.9,30.11,NW,317,13.0,20.0,-999,-99.99,,,-99.99,,2013-01-17 16:13:00,
2013-01-17 11:23:00,66.0,-99.9,30.11,NW,306,12.0,15.0,-999,-99.99,,,-99.99,,2013-01-17 16:23:00,
2013-01-17 11:34:00,67.0,-99.9,30.10,NW,308,12.0,16.0,-999,-99.99,,,-99.99,,2013-01-17 16:34:00,
2013-01-17 11:44:00,67.0,-99.9,30.10,WNW,299,15.0,20.0,-999,-99.99,,,-99.99,,2013-01-17 16:44:00,
2013-01-17 11:53:00,67.0,-99.9,30.10,NW,309,15.0,20.0,-999,-99.99,,,-99.99,,2013-01-17 16:53:00,
2013-01-17 12:03:00,66.0,-99.9,30.10,NW,311,13.0,17.0,-999,-99.99,,,-99.99,,2013-01-17 17:03:00,
2013-01-17 12:13:00,65.0,-99.9,30.10,WNW,295,16.0,20.0,-999,-99.99,,,-99.99,,2013-01-17 17:13:00,
2013-01-17 12:23:00,65.0,-99.9,30.10,WNW,303,12.0,19.0,-999,-99.99,,,-99.99,,2013-01-17 17:23:00,
2013-01-17 12:33:00,65.0,-99.9,30.09,NW,312,14.0,18.0,-999,-99.99,,,-99.99,,2013-01-17 17:33:00,
2013-01-17 12:43:00,65.0,-99.9,30.09,WNW,302,16.0,21.0,-999,-99.99,,,-99.99,,2013-01-17 17:43:00,
2013-01-17 12:54:00,65.0,-99.9,30.09,WNW,298,14.0,18.0,-999,-99.99,,,-99.99,,2013-01-17 17:54:00,
2013-01-17 13:04:00,64.0,-99.9,30.09,WNW,301,18.0,25.0,-999,-99.99,,,-99.99,,2013-01-17 18:04:00,
2013-01-17 13:13:00,63.0,-99.9,30.09,WNW,297,17.0,21.0,-999,-99.99,,,-99.99,,2013-01-17 18:13:00,
2013-01-17 13:23:00,63.0,-99.9,30.09,WNW,294,17.0,23.0,-999,-99.99,,,-99.99,,2013-01-17 18:23:00,
2013-01-17 13:34:00,63.0,-99.9,30.08,WNW,300,17.0,25.0,-999,-99.99,,,-99.99,,2013-01-17 18:34:00,
2013-01-17 13:44:00,62.0,-99.9,30.08,NW,311,18.0,25.0,-999,-99.99,,,-99.99,,2013-01-17 18:44:00,
2013-01-17 13:54:00,62.0,-99.9,30.08,NW,310,14.0,25.0,-999,-99.99,,,-99.99,,2013-01-17 18:54:00,
2013-01-17 14:04:00,61.0,-99.9,30.08,WNW,302,17.0,23.0,-999,-99.99,,,-99.99,,2013-01-17 19:04:00,
2013-01-17 14:13:00,60.0,-99.9,30.08,NW,306,16.0,25.0,-999,-99.99,,,-99.99,,2013-01-17 19:13:00,
2013-01-17 14:23:00,60.0,-99.9,30.08,NW,304,17.0,23.0,-999,-99.99,,,-99.99,,2013-01-17 19:23:00,
2013-01-17 14:33:00,60.0,-99.9,30.08,NW,306,18.0,24.0,-999,-99.99,,,-99.99,,2013-01-17 19:33:00,
2013-01-17 14:43:00,59.0,-99.9,30.08,NW,309,17.0,25.0,-999,-99.99,,,-99.99,,2013-01-17 19:43:00,
2013-01-17 14:54:00,59.0,-99.9,30.09,NW,309,16.0,22.0,-999,-99.99,,,-99.99,,2013-01-17 19:54:00,
2013-01-17 15:03:00,59.0,-99.9,30.09,NW,305,17.0,23.0,-999,-99.99,,,-99.99,,2013-01-17 20:03:00,
2013-01-17 15:13:00,60.0,-99.9,30.09,NW,308,11.0,18.0,-999,-99.99,,,-99.99,,2013-01-17 20:13:00,
2013-01-17 15:23:00,62.0,-99.9,30.09,WNW,301,15.0,20.0,-999,-99.99,,,-99.99,,2013-01-17 20:23:00,
2013-01-17 15:34:00,62.0,-99.9,30.08,WNW,301,13.0,19.0,-999,-99.99,,,-99.99,,2013-01-17 20:34:00,
2013-01-17 15:44:00,62.0,-99.9,30.08,NW,310,13.0,19.0,-999,-99.99,,,-99.99,,2013-01-17 20:44:00,
2013-01-17 15:54:00,62.0,-99.9,30.08,NW,309,14.0,24.0,-999,-99.99,,,-99.99,,2013-01-17 20:54:00,
2013-01-17 16:03:00,62.0,-99.9,30.09,NW,308,14.0,20.0,-999,-99.99,,,-99.99,,2013-01-17 21:03:00,
2013-01-17 16:13:00,62.0,-99.9,30.09,NW,312,16.0,22.0,-999,-99.99,,,-99.99,,2013-01-17 21:13:00,
2013-01-17 16:24:00,62.0,-99.9,30.10,WNW,302,19.0,23.0,-999,-99.99,,,-99.99,,2013-01-17 21:24:00,
2013-01-17 16:34:00,62.0,-99.9,30.10,NW,305,14.0,21.0,-999,-99.99,,,-99.99,,2013-01-17 21:34:00,
2013-01-17 16:43:00,62.0,-99.9,30.10,NW,305,16.0,24.0,-999,-99.99,,,-99.99,,2013-01-17 21:43:00,
2013-01-17 16:53:00,62.0,-99.9,30.11,WNW,296,12.0,21.0,-999,-99.99,,,-99.99,,2013-01-17 21:53:00,
2013-01-17 17:04:00,62.0,-99.9,30.11,NW,310,15.0,23.0,-999,-99.99,,,-99.99,,2013-01-17 22:04:00,
2013-01-17 17:12:00,62.0,-99.9,30.11,NW,311,17.0,23.0,-999,-99.99,,,-99.99,,2013-01-17 22:12:00,
2013-01-17 17:23:00,61.0,-99.9,30.11,WNW,302,17.0,22.0,-999,-99.99,,,-99.99,,2013-01-17 22:23:00,
2013-01-17 17:33:00,61.0,-99.9,30.11,NW,307,15.0,22.0,-999,-99.99,,,-99.99,,2013-01-17 22:33:00,
2013-01-17 17:43:00,61.0,-99.9,30.11,NW,305,15.0,22.0,-999,-99.99,,,-99.99,,2013-01-17 22:43:00,
2013-01-17 17:53:00,61.0,-99.9,30.12,WNW,303,16.0,22.0,-999,-99.99,,,-99.99,,2013-01-17 22:53:00,
2013-01-17 18:03:00,61.0,-99.9,30.12,WNW,296,17.0,25.0,-999,-99.99,,,-99.99,,2013-01-17 23:03:00,
2013-01-17 18:12:00,61.0,-99.9,30.12,NW,311,11.0,25.0,-999,-99.99,,,-99.99,,2013-01-17 23:12:00,
2013-01-17 18:23:00,60.0,-99.9,30.12,NW,309,14.0,19.0,-999,-99.99,,,-99.99,,2013-01-17 23:23:00,
2013-01-17 18:33:00,60.0,-99.9,30.13,NW,312,15.0,20.0,-999,-99.99,,,-99.99,,2013-01-17 23:33:00,
2013-01-17 18:43:00,60.0,-99.9,30.13,NW,311,15.0,22.0,-999,-99.99,,,-99.99,,2013-01-17 23:43:00,
2013-01-17 18:53:00,60.0,-99.9,30.13,NW,308,11.0,16.0,-999,-99.99,,,-99.99,,2013-01-17 23:53:00,
2013-01-17 19:03:00,60.0,-99.9,30.13,WNW,303,13.0,17.0,-999,-99.99,,,-99.99,,2013-01-18 00:03:00,
2013-01-17 19:13:00,60.0,-99.9,30.14,NW,307,11.0,16.0,-999,-99.99,,,-99.99,,2013-01-18 00:13:00,
2013-01-17 19:23:00,60.0,-99.9,30.14,NW,305,12.0,22.0,-999,-99.99,,,-99.99,,2013-01-18 00:23:00,
2013-01-17 19:33:00,60.0,-99.9,30.14,NW,305,12.0,22.0,-999,-99.99,,,-99.99,,2013-01-18 00:33:00,
2013-01-17 19:43:00,60.0,-99.9,30.14,NW,310,17.0,21.0,-999,-99.99,,,-99.99,,2013-01-18 00:43:00,
2013-01-17 19:53:00,60.0,-99.9,30.14,NW,307,20.0,28.0,-999,-99.99,,,-99.99,,2013-01-18 00:53:00,
2013-01-17 20:03:00,60.0,-99.9,30.15,NW,311,14.0,23.0,-999,-99.99,,,-99.99,,2013-01-18 01:03:00,
2013-01-17 20:13:00,60.0,-99.9,30.15,NW,305,15.0,20.0,-999,-99.99,,,-99.99,,2013-01-18 01:13:00,
2013-01-17 20:23:00,59.0,-99.9,30.15,NW,312,15.0,21.0,-999,-99.99,,,-99.99,,2013-01-18 01:23:00,
2013-01-17 20:33:00,60.0,-99.9,30.16,WNW,298,14.0,23.0,-999,-99.99,,,-99.99,,2013-01-18 01:33:00,
2013-01-17 20:43:00,59.0,-99.9,30.16,WNW,302,16.0,21.0,-999,-99.99,,,-99.99,,2013-01-18 01:43:00,
2013-01-17 20:53:00,59.0,-99.9,30.16,NW,307,10.0,21.0,-999,-99.99,,,-99.99,,2013-01-18 01:53:00,
2013-01-17 21:03:00,59.0,-99.9,30.16,WNW,300,12.0,18.0,-999,-99.99,,,-99.99,,2013-01-18 02:03:00,
2013-01-17 21:12:00,59.0,-99.9,30.16,NW,306,17.0,23.0,-999,-99.99,,,-99.99,,2013-01-18 02:12:00,
2013-01-17 21:23:00,59.0,-99.9,30.17,NW,305,15.0,20.0,-999,-99.99,,,-99.99,,2013-01-18 02:23:00,
2013-01-17 21:33:00,58.0,-99.9,30.17,NW,308,18.0,27.0,-999,-99.99,,,-99.99,,2013-01-18 02:33:00,
2013-01-17 21:43:00,58.0,-99.9,30.17,NW,307,16.0,25.0,-999,-99.99,,,-99.99,,2013-01-18 02:43:00,
2013-01-17 21:53:00,58.0,-99.9,30.18,NW,311,17.0,28.0,-999,-99.99,,,-99.99,,2013-01-18 02:53:00,
2013-01-17 22:03:00,58.0,-99.9,30.18,NW,310,16.0,25.0,-999,-99.99,,,-99.99,,2013-01-18 03:03:00,
2013-01-17 22:13:00,58.0,-99.9,30.18,NW,316,16.0,24.0,-999,-99.99,,,-99.99,,2013-01-18 03:13:00,
2013-01-17 22:23:00,57.0,-99.9,30.18,NW,307,18.0,24.0,-999,-99.99,,,-99.99,,2013-01-18 03:23:00,
2013-01-17 22:33:00,57.0,-99.9,30.18,NW,314,13.0,23.0,-999,-99.99,,,-99.99,,2013-01-18 03:33:00,
2013-01-17 22:43:00,57.0,-99.9,30.18,NW,313,11.0,18.0,-999,-99.99,,,-99.99,,2013-01-18 03:43:00,
2013-01-17 22:53:00,57.0,-99.9,30.18,NW,310,15.0,22.0,-999,-99.99,,,-99.99,,2013-01-18 03:53:00,
2013-01-17 23:03:00,57.0,-99.9,30.18,NNW,331,13.0,29.0,-999,-99.99,,,-99.99,,2013-01-18 04:03:00,
2013-01-17 23:12:00,57.0,-99.9,30.18,NW,313,11.0,19.0,-999,-99.99,,,-99.99,,2013-01-18 04:12:00,
2013-01-17 23:22:00,57.0,-99.9,30.17,NW,310,15.0,21.0,-999,-99.99,,,-99.99,,2013-01-18 04:22:00,
2013-01-17 23:33:00,56.0,-99.9,30.18,NNW,329,12.0,21.0,-999,-99.99,,,-99.99,,2013-01-18 04:33:00,
2013-01-17 23:43:00,56.0,-99.9,30.18,NW,326,12.0,20.0,-999,-99.99,,,-99.99,,2013-01-18 04:43:00,
2013-01-17 23:53:00,56.0,-99.9,30.18,NW,326,14.0,23.0,-999,-99.99,,,-99.99,,2013-01-18 04:53:00,